Time;durP1;ratioP1;P1;durP2;ratioP2;P2;SDS_P1;SDS_P2;PMS_P1;PMS_P2;Temp;Humidity;BMP_temperature;BMP_pressure;BME280_temperature;BME280_humidity;BME280_pressure;Samples;Min_cycle;Max_cycle;Signal;HPM_P1;HPM_P2
2023/04/05 00:00:34;;;;;;;;;;;;;;;18.39;54.08;98554.84;2077332;28;19941;-57
2023/04/05 00:01:34;;;;;;;;;;;;;;;18.38;54.10;98556.66;2080211;28;19933;-52
2023/04/05 00:02:39;;;;;;;;;;;;;;;18.39;54.09;98563.72;2078021;28;20603;-55
2023/04/05 00:03:41;;;;;;;;;;;;;;;18.39;54.14;98557.53;2079868;28;20618;-56
2023/04/05 00:04:49;;;;;;;;;;;;;;;18.40;54.05;98553.78;2079957;28;20960;-54
2023/04/05 00:05:49;;;;;;;;;;;;;;;18.37;53.69;98554.19;2077667;28;19925;-58
2023/04/05 00:06:51;;;;;;;;;;;;;;;18.35;54.15;98557.06;2076547;28;19960;-56
2023/04/05 00:07:53;;;;;;;;;;;;;;;18.34;54.06;98559.97;2078501;28;20454;-57
2023/04/05 00:08:54;;;;;;;;;;;;;;;18.33;54.15;98547.56;2076120;28;20047;-55
2023/04/05 00:09:55;;;;;;;;;;;;;;;18.33;54.06;98553.78;2075999;28;19973;-57
2023/04/05 00:10:57;;;;;;;;;;;;;;;18.33;53.82;98556.47;2078272;28;20009;-58
2023/04/05 00:11:58;;;;;;;;;;;;;;;18.33;53.89;98564.53;2084000;28;19929;-58
2023/04/05 00:13:00;;;;;;;;;;;;;;;18.30;54.17;98555.03;2076006;28;19932;-53
2023/04/05 00:14:02;;;;;;;;;;;;;;;18.31;53.85;98555.84;2076528;28;19932;-53
2023/04/05 00:15:04;;;;;;;;;;;;;;;18.28;53.93;98551.72;2076239;28;19932;-57
2023/04/05 00:16:05;;;;;;;;;;;;;;;18.28;53.93;98558.94;2074813;28;20554;-54
2023/04/05 00:17:06;;;;;;;;;;;;;;;18.26;54.15;98552.94;2076040;28;19928;-55
2023/04/05 00:18:07;;;;;;;;;;;;;;;18.26;54.04;98561.81;2073679;28;19981;-51
2023/04/05 00:19:09;;;;;;;;;;;;;;;18.25;54.39;98556.66;2082197;28;20442;-50
2023/04/05 00:20:11;;;;;;;;;;;;;;;18.24;54.23;98555.00;2076222;28;19933;-53
2023/04/05 00:21:13;;;;;;;;;;;;;;;18.24;54.18;98555.81;2083295;28;19933;-50
2023/04/05 00:22:13;;;;;;;;;;;;;;;18.23;54.30;98553.34;2076050;28;19928;-57
2023/04/05 00:23:16;;;;;;;;;;;;;;;18.22;54.27;98549.00;2074785;28;20162;-54
2023/04/05 00:24:16;;;;;;;;;;;;;;;18.21;54.23;98547.34;2080476;28;20045;-51
2023/04/05 00:25:20;;;;;;;;;;;;;;;18.21;54.22;98550.03;2076631;28;20409;-57
2023/04/05 00:26:21;;;;;;;;;;;;;;;18.18;54.31;98550.44;2080137;28;19932;-53
2023/04/05 00:27:23;;;;;;;;;;;;;;;18.19;54.23;98552.09;2078542;28;20539;-52
2023/04/05 00:28:24;;;;;;;;;;;;;;;18.18;54.08;98558.50;2073646;28;19928;-56
2023/04/05 00:29:25;;;;;;;;;;;;;;;18.18;54.26;98547.75;2079971;28;19974;-56
2023/04/05 00:30:28;;;;;;;;;;;;;;;18.18;54.25;98555.81;2080178;28;19981;-58
2023/04/05 00:31:29;;;;;;;;;;;;;;;18.16;54.18;98547.13;2079952;28;20007;-51
2023/04/05 00:32:30;;;;;;;;;;;;;;;18.16;54.25;98552.50;2076165;28;19936;-52
2023/04/05 00:33:31;;;;;;;;;;;;;;;18.15;54.22;98548.16;2083111;28;19939;-50
2023/04/05 00:34:32;;;;;;;;;;;;;;;18.13;54.31;98539.47;2076065;28;19941;-58
2023/04/05 00:35:34;;;;;;;;;;;;;;;18.14;54.29;98544.66;2082582;28;19928;-56
2023/04/05 00:36:36;;;;;;;;;;;;;;;18.14;54.21;98541.97;2082546;28;20070;-55
2023/04/05 00:37:37;;;;;;;;;;;;;;;18.14;54.19;98543.84;2080631;28;19960;-57
2023/04/05 00:38:38;;;;;;;;;;;;;;;18.09;54.12;98539.88;2077139;28;19968;-56
2023/04/05 00:39:40;;;;;;;;;;;;;;;18.09;54.14;98545.25;2081087;28;19964;-56
2023/04/05 00:40:40;;;;;;;;;;;;;;;18.11;54.34;98544.22;2078373;28;19933;-56
2023/04/05 00:41:43;;;;;;;;;;;;;;;18.08;54.32;98540.94;2080849;28;19935;-57
2023/04/05 00:42:45;;;;;;;;;;;;;;;18.11;54.20;98544.22;2080351;28;19932;-53
2023/04/05 00:43:46;;;;;;;;;;;;;;;18.07;54.13;98541.13;2077587;28;19928;-56
2023/04/05 00:44:47;;;;;;;;;;;;;;;18.06;54.08;98545.66;2078677;28;20914;-56
2023/04/05 00:45:48;;;;;;;;;;;;;;;18.06;54.27;98534.09;2079794;28;19979;-53
2023/04/05 00:46:49;;;;;;;;;;;;;;;18.06;54.42;98536.78;2079093;28;19946;-52
2023/04/05 00:47:51;;;;;;;;;;;;;;;18.05;54.32;98535.13;2079052;28;19929;-53
2023/04/05 00:48:52;;;;;;;;;;;;;;;18.05;54.27;98541.34;2080921;28;19945;-57
2023/04/05 00:49:53;;;;;;;;;;;;;;;18.04;54.23;98533.47;2079819;28;19945;-52
2023/04/05 00:50:54;;;;;;;;;;;;;;;18.03;54.33;98534.50;2080065;28;19933;-54
2023/04/05 00:51:57;;;;;;;;;;;;;;;18.03;54.15;98535.34;2075737;28;20025;-56
2023/04/05 00:52:57;;;;;;;;;;;;;;;18.02;54.39;98538.19;2079448;28;19963;-56
2023/04/05 00:53:59;;;;;;;;;;;;;;;18.02;54.30;98532.84;2079883;28;20111;-56
2023/04/05 00:55:00;;;;;;;;;;;;;;;18.01;54.23;98539.25;2077204;28;19929;-58
2023/04/05 00:56:01;;;;;;;;;;;;;;;18.01;54.23;98534.69;2078729;28;20138;-53
2023/04/05 00:57:02;;;;;;;;;;;;;;;18.01;54.32;98536.56;2076914;28;19924;-57
2023/04/05 00:58:05;;;;;;;;;;;;;;;17.99;54.28;98535.94;2080500;28;19939;-58
2023/04/05 00:59:07;;;;;;;;;;;;;;;17.97;54.47;98529.94;2076461;28;19935;-51
2023/04/05 01:00:08;;;;;;;;;;;;;;;17.98;54.18;98532.41;2079056;28;20720;-51
2023/04/05 01:01:13;;;;;;;;;;;;;;;17.99;54.09;98530.56;2080048;28;19925;-57
2023/04/05 01:02:17;;;;;;;;;;;;;;;17.98;54.19;98524.38;2080392;28;20444;-54
2023/04/05 01:03:19;;;;;;;;;;;;;;;17.96;54.47;98529.09;2082207;28;21914;-54
2023/04/05 01:04:20;;;;;;;;;;;;;;;17.95;54.31;98532.81;2079953;28;19939;-53
2023/04/05 01:05:30;;;;;;;;;;;;;;;17.94;54.15;98531.19;2077245;28;19929;-53
2023/04/05 01:06:36;;;;;;;;;;;;;;;17.94;54.23;98533.88;2077371;28;19939;-52
2023/04/05 01:07:41;;;;;;;;;;;;;;;17.93;54.41;98521.47;2079809;28;19928;-54
2023/04/05 01:08:48;;;;;;;;;;;;;;;17.92;54.36;98529.72;2077366;28;19932;-56
2023/04/05 01:09:53;;;;;;;;;;;;;;;17.91;54.48;98528.88;2077539;28;19939;-55
2023/04/05 01:10:56;;;;;;;;;;;;;;;17.90;54.19;98523.72;2076396;28;19933;-56
2023/04/05 01:12:01;;;;;;;;;;;;;;;17.88;54.18;98526.59;2079693;28;19929;-54
2023/04/05 01:13:01;;;;;;;;;;;;;;;17.88;54.48;98520.41;2081134;28;19989;-53
2023/04/05 01:14:04;;;;;;;;;;;;;;;17.85;54.37;98518.97;2076378;28;19932;-55
2023/04/05 01:15:05;;;;;;;;;;;;;;;17.85;54.36;98524.31;2081327;28;19960;-56
2023/04/05 01:16:07;;;;;;;;;;;;;;;17.85;54.30;98524.31;2082263;28;19982;-53
2023/04/05 01:17:09;;;;;;;;;;;;;;;17.86;54.30;98520.63;2080163;28;19978;-54
2023/04/05 01:18:11;;;;;;;;;;;;;;;17.83;54.29;98519.19;2068744;28;19942;-52
2023/04/05 01:19:12;;;;;;;;;;;;;;;17.83;54.64;98519.19;2079144;28;20608;-58
2023/04/05 01:20:14;;;;;;;;;;;;;;;17.84;54.24;98522.69;2081772;28;20488;-51
2023/04/05 01:21:28;;;;;;;;;;;;;;;17.83;54.21;98521.03;2082425;28;20016;-54
2023/04/05 01:22:50;;;;;;;;;;;;;;;17.81;54.35;98523.09;2078755;28;19968;-54
2023/04/05 01:23:59;;;;;;;;;;;;;;;17.80;54.55;98526.78;2062332;28;19968;-53
2023/04/05 01:25:09;;;;;;;;;;;;;;;17.79;54.44;98525.13;2076571;28;20009;-54
2023/04/05 01:26:35;;;;;;;;;;;;;;;17.82;54.46;98530.09;2080984;28;19931;-54
2023/04/05 01:27:43;;;;;;;;;;;;;;;17.78;54.51;98523.47;2080713;28;19936;-52
2023/04/05 01:28:57;;;;;;;;;;;;;;;17.76;54.59;98525.50;2079100;28;20490;-55
2023/04/05 01:30:03;;;;;;;;;;;;;;;17.74;54.47;98523.00;2081190;28;19929;-51
2023/04/05 01:31:06;;;;;;;;;;;;;;;17.74;54.52;98519.50;2081048;28;19928;-57
2023/04/05 01:32:11;;;;;;;;;;;;;;;17.75;54.33;98523.88;2077298;28;19925;-54
2023/04/05 01:33:13;;;;;;;;;;;;;;;17.73;54.34;98520.53;2078818;28;19941;-54
2023/04/05 01:34:18;;;;;;;;;;;;;;;17.74;54.37;98520.31;2078422;28;19959;-54
2023/04/05 01:35:21;;;;;;;;;;;;;;;17.74;54.30;98519.50;2081291;28;19928;-54
2023/04/05 01:36:27;;;;;;;;;;;;;;;17.71;54.46;98523.41;2079770;28;19971;-54
2023/04/05 01:37:29;;;;;;;;;;;;;;;17.70;54.43;98524.44;2080195;28;19925;-52
2023/04/05 01:38:31;;;;;;;;;;;;;;;17.71;54.44;98522.59;2084152;28;19929;-53
2023/04/05 01:39:34;;;;;;;;;;;;;;;17.69;54.47;98519.28;2079619;28;20068;-54
2023/04/05 01:40:37;;;;;;;;;;;;;;;17.69;54.60;98528.19;2076684;28;19982;-50
2023/04/05 01:41:37;;;;;;;;;;;;;;;17.69;54.39;98520.13;2077309;28;20030;-54
2023/04/05 01:42:39;;;;;;;;;;;;;;;17.68;54.35;98523.00;2080802;28;19994;-53
2023/04/05 01:43:40;;;;;;;;;;;;;;;17.65;54.78;98521.53;2080310;28;20797;-53
2023/04/05 01:44:41;;;;;;;;;;;;;;;17.64;54.64;98523.41;2080700;28;19929;-52
2023/04/05 01:45:44;;;;;;;;;;;;;;;17.65;54.53;98525.03;2075672;28;19929;-53
2023/04/05 01:46:45;;;;;;;;;;;;;;;17.65;54.51;98525.03;2081231;28;20078;-55
2023/04/05 01:47:46;;;;;;;;;;;;;;;17.64;54.43;98522.56;2078451;28;19932;-56
2023/04/05 01:48:47;;;;;;;;;;;;;;;17.65;54.72;98525.03;2078814;28;20012;-52
2023/04/05 01:49:48;;;;;;;;;;;;;;;17.65;54.55;98514.31;2077577;28;19932;-53
2023/04/05 01:50:49;;;;;;;;;;;;;;;17.64;54.41;98515.34;2081493;28;22162;-57
2023/04/05 01:51:50;;;;;;;;;;;;;;;17.61;54.39;98517.63;2079234;28;19959;-53
2023/04/05 01:52:51;;;;;;;;;;;;;;;17.60;54.53;98511.41;2078922;28;19929;-53
2023/04/05 01:53:52;;;;;;;;;;;;;;;17.60;54.61;98516.75;2082173;28;20582;-55
2023/04/05 01:54:54;;;;;;;;;;;;;;;17.60;54.69;98519.44;2081094;28;19974;-55
2023/04/05 01:55:58;;;;;;;;;;;;;;;17.59;54.53;98515.13;2082194;28;19933;-62
2023/04/05 01:57:00;;;;;;;;;;;;;;;17.56;54.57;98512.84;2084106;28;19929;-54
2023/04/05 01:58:00;;;;;;;;;;;;;;;17.56;54.69;98506.66;2078109;28;20486;-52
2023/04/05 01:59:02;;;;;;;;;;;;;;;17.57;54.77;98508.31;2077327;28;19940;-54
2023/04/05 02:00:03;;;;;;;;;;;;;;;17.54;54.60;98514.88;2075276;28;20019;-54
2023/04/05 02:01:06;;;;;;;;;;;;;;;17.57;54.56;98513.66;2076996;28;19932;-51
2023/04/05 02:02:06;;;;;;;;;;;;;;;17.57;54.49;98508.31;2082221;28;19942;-53
2023/04/05 02:03:08;;;;;;;;;;;;;;;17.55;54.62;98503.16;2081118;28;20536;-54
2023/04/05 02:04:08;;;;;;;;;;;;;;;17.55;54.51;98511.19;2080481;28;19929;-52
2023/04/05 02:05:10;;;;;;;;;;;;;;;17.54;54.60;98506.84;2080753;28;20374;-53
2023/04/05 02:06:10;;;;;;;;;;;;;;;17.52;54.77;98503.53;2083292;28;19933;-52
2023/04/05 02:07:12;;;;;;;;;;;;;;;17.53;54.70;98505.19;2080906;28;20057;-50
2023/04/05 02:08:13;;;;;;;;;;;;;;;17.52;54.86;98514.25;2083535;28;19937;-50
2023/04/05 02:09:15;;;;;;;;;;;;;;;17.50;54.62;98508.28;2079697;28;20012;-54
2023/04/05 02:10:16;;;;;;;;;;;;;;;17.52;54.59;98508.88;2077545;28;19932;-50
2023/04/05 02:11:17;;;;;;;;;;;;;;;17.51;54.67;98509.94;2082036;28;20648;-53
2023/04/05 02:12:18;;;;;;;;;;;;;;;17.50;54.60;98505.59;2077488;28;19936;-53
2023/04/05 02:13:20;;;;;;;;;;;;;;;17.51;54.61;98512.59;2079395;28;20010;-55
2023/04/05 02:14:20;;;;;;;;;;;;;;;17.49;54.63;98513.81;2082368;28;20614;-56
2023/04/05 02:15:22;;;;;;;;;;;;;;;17.49;54.62;98513.81;2080569;28;20004;-54
2023/04/05 02:16:25;;;;;;;;;;;;;;;17.49;54.71;98511.16;2080622;28;19929;-54
2023/04/05 02:17:32;;;;;;;;;;;;;;;17.48;54.61;98513.00;2081442;28;21211;-58
2023/04/05 02:18:33;;;;;;;;;;;;;;;17.47;54.59;98516.72;2079932;28;19932;-58
2023/04/05 02:19:39;;;;;;;;;;;;;;;17.46;54.55;98507.00;2084892;28;20035;-54
2023/04/05 02:20:40;;;;;;;;;;;;;;;17.47;54.50;98503.31;2078933;28;19982;-51
2023/04/05 02:21:41;;;;;;;;;;;;;;;17.45;54.68;98507.22;2082000;28;20013;-53
2023/04/05 02:22:44;;;;;;;;;;;;;;;17.46;54.64;98515.06;2079356;28;19982;-54
2023/04/05 02:23:45;;;;;;;;;;;;;;;17.43;54.63;98513.59;2083848;28;19929;-54
2023/04/05 02:24:47;;;;;;;;;;;;;;;17.45;54.67;98512.59;2080108;28;19936;-54
2023/04/05 02:25:47;;;;;;;;;;;;;;;17.41;54.64;98513.00;2083568;28;19962;-55
2023/04/05 02:26:48;;;;;;;;;;;;;;;17.41;54.73;98510.31;2080402;28;20383;-50
2023/04/05 02:27:49;;;;;;;;;;;;;;;17.42;54.79;98519.16;2076673;28;19929;-58
2023/04/05 02:28:50;;;;;;;;;;;;;;;17.43;54.63;98513.59;2076072;28;20532;-59
2023/04/05 02:29:51;;;;;;;;;;;;;;;17.42;54.55;98514.63;2080403;28;20015;-56
2023/04/05 02:30:53;;;;;;;;;;;;;;;17.39;54.73;98519.56;2078414;28;20013;-55
2023/04/05 02:31:55;;;;;;;;;;;;;;;17.38;54.68;98513.38;2083597;28;19970;-56
2023/04/05 02:32:56;;;;;;;;;;;;;;;17.39;54.74;98519.56;2081942;28;19928;-50
2023/04/05 02:33:59;;;;;;;;;;;;;;;17.38;54.73;98515.22;2080090;28;20406;-58
2023/04/05 02:35:01;;;;;;;;;;;;;;;17.39;54.61;98524.94;2082194;28;19928;-57
2023/04/05 02:36:03;;;;;;;;;;;;;;;17.39;54.68;98522.25;2077137;28;19972;-56
2023/04/05 02:37:05;;;;;;;;;;;;;;;17.37;54.64;98517.06;2083612;28;19936;-50
2023/04/05 02:38:05;;;;;;;;;;;;;;;17.37;54.57;98517.06;2083819;28;20272;-52
2023/04/05 02:39:07;;;;;;;;;;;;;;;17.36;54.58;98519.97;2078690;28;19998;-55
2023/04/05 02:40:11;;;;;;;;;;;;;;;17.36;54.68;98519.97;2081167;28;19928;-58
2023/04/05 02:41:12;;;;;;;;;;;;;;;17.36;54.62;98514.59;2083141;28;19939;-55
2023/04/05 02:42:13;;;;;;;;;;;;;;;17.37;54.69;98521.63;2079314;28;19933;-57
2023/04/05 02:43:15;;;;;;;;;;;;;;;17.36;54.79;98514.59;2086294;28;19933;-51
2023/04/05 02:44:15;;;;;;;;;;;;;;;17.34;54.70;98514.78;2079072;28;20453;-55
2023/04/05 02:45:17;;;;;;;;;;;;;;;17.34;54.73;98516.66;2076092;28;19938;-54
2023/04/05 02:46:17;;;;;;;;;;;;;;;17.30;54.70;98505.50;2080370;28;19933;-54
2023/04/05 02:47:21;;;;;;;;;;;;;;;17.31;54.56;98511.69;2082660;28;20335;-57
2023/04/05 02:48:21;;;;;;;;;;;;;;;17.32;54.61;98516.00;2080860;28;20349;-51
2023/04/05 02:49:23;;;;;;;;;;;;;;;17.32;54.72;98513.34;2081200;28;19978;-55
2023/04/05 02:50:23;;;;;;;;;;;;;;;17.29;54.68;98503.00;2077265;28;19940;-56
2023/04/05 02:51:25;;;;;;;;;;;;;;;17.30;54.62;98504.66;2083177;28;20015;-52
2023/04/05 02:52:26;;;;;;;;;;;;;;;17.28;54.75;98506.72;2085029;28;19969;-51
2023/04/05 02:53:28;;;;;;;;;;;;;;;17.29;54.77;98500.31;2083292;28;20006;-50
2023/04/05 02:54:28;;;;;;;;;;;;;;;17.29;54.66;98511.06;2079235;28;19957;-56
2023/04/05 02:55:33;;;;;;;;;;;;;;;17.27;54.84;98505.06;2080084;28;19967;-52
2023/04/05 02:56:33;;;;;;;;;;;;;;;17.27;54.65;98503.19;2081866;28;21007;-57
2023/04/05 02:57:34;;;;;;;;;;;;;;;17.29;54.72;98508.38;2082925;28;20043;-58
2023/04/05 02:58:35;;;;;;;;;;;;;;;17.26;54.81;98508.78;2082700;28;19973;-50
2023/04/05 02:59:37;;;;;;;;;;;;;;;17.27;54.71;98505.88;2079198;28;19986;-54
2023/04/05 03:00:37;;;;;;;;;;;;;;;17.26;54.57;98504.22;2080545;27;20012;-53
2023/04/05 03:01:43;;;;;;;;;;;;;;;17.26;54.78;98511.44;2079734;28;19932;-54
2023/04/05 03:02:44;;;;;;;;;;;;;;;17.26;54.71;98506.09;2084131;28;19932;-52
2023/04/05 03:03:46;;;;;;;;;;;;;;;17.25;54.77;98507.13;2080070;28;19925;-52
2023/04/05 03:04:46;;;;;;;;;;;;;;;17.24;54.90;98502.78;2079449;28;20743;-54
2023/04/05 03:05:48;;;;;;;;;;;;;;;17.24;54.74;98502.78;2077874;28;19971;-54
2023/04/05 03:06:51;;;;;;;;;;;;;;;17.23;54.73;98511.84;2077360;28;20520;-53
2023/04/05 03:07:52;;;;;;;;;;;;;;;17.22;54.76;98502.13;2068073;28;19928;-55
2023/04/05 03:08:52;;;;;;;;;;;;;;;17.22;54.66;98502.13;2072415;28;19933;-51
2023/04/05 03:09:54;;;;;;;;;;;;;;;17.18;54.82;98507.06;2072461;28;21573;-53
2023/04/05 03:10:54;;;;;;;;;;;;;;;17.19;54.86;98508.75;2070680;28;19987;-62
2023/04/05 03:11:56;;;;;;;;;;;;;;;17.18;54.82;98496.34;2074355;28;20677;-55
2023/04/05 03:12:57;;;;;;;;;;;;;;;17.18;54.73;98505.22;2073112;28;20023;-52
2023/04/05 03:13:58;;;;;;;;;;;;;;;17.16;54.85;98507.28;2070324;28;19935;-53
2023/04/05 03:14:59;;;;;;;;;;;;;;;17.17;54.83;98503.56;2070195;28;19932;-53
2023/04/05 03:16:00;;;;;;;;;;;;;;;17.16;54.83;98501.94;2072971;28;19948;-51
2023/04/05 03:17:01;;;;;;;;;;;;;;;17.17;54.81;98508.09;2072518;28;19951;-53
2023/04/05 03:18:04;;;;;;;;;;;;;;;17.16;54.81;98509.09;2073360;28;19929;-54
2023/04/05 03:19:05;;;;;;;;;;;;;;;17.15;54.83;98507.47;2074012;28;20723;-53
2023/04/05 03:20:08;;;;;;;;;;;;;;;17.13;54.92;98509.50;2071249;28;20006;-56
2023/04/05 03:21:11;;;;;;;;;;;;;;;17.14;54.79;98512.00;2070076;28;19971;-52
2023/04/05 03:22:12;;;;;;;;;;;;;;;17.12;54.70;98511.38;2073804;28;19943;-54
2023/04/05 03:23:13;;;;;;;;;;;;;;;17.11;54.76;98507.03;2074631;28;19971;-55
2023/04/05 03:24:14;;;;;;;;;;;;;;;17.15;54.92;98504.78;2069925;28;19937;-54
2023/04/05 03:25:16;;;;;;;;;;;;;;;17.11;54.82;98501.69;2067929;28;19940;-49
2023/04/05 03:26:17;;;;;;;;;;;;;;;17.11;54.82;98512.41;2071770;28;20538;-52
2023/04/05 03:27:18;;;;;;;;;;;;;;;17.09;54.84;98502.91;2073350;28;20381;-56
2023/04/05 03:28:20;;;;;;;;;;;;;;;17.11;54.75;98503.53;2065894;28;19929;-54
2023/04/05 03:29:20;;;;;;;;;;;;;;;17.09;54.99;98503.72;2067326;28;20465;-53
2023/04/05 03:30:22;;;;;;;;;;;;;;;17.12;54.92;98505.19;2069754;28;19937;-53
2023/04/05 03:31:22;;;;;;;;;;;;;;;17.09;54.91;98509.09;2075262;28;19925;-55
2023/04/05 03:32:24;;;;;;;;;;;;;;;17.09;54.78;98503.72;2072877;28;20352;-54
2023/04/05 03:33:26;;;;;;;;;;;;;;;17.11;54.72;98507.03;2075424;28;20376;-52
2023/04/05 03:34:27;;;;;;;;;;;;;;;17.09;54.59;98510.94;2070994;28;19952;-56
2023/04/05 03:35:28;;;;;;;;;;;;;;;17.10;54.79;98510.72;2068856;28;19929;-49
2023/04/05 03:36:40;;;;;;;;;;;;;;;17.11;54.81;98499.00;2070273;28;20436;-53
2023/04/05 03:37:41;;;;;;;;;;;;;;;17.12;54.65;98503.31;2071323;28;19925;-53
2023/04/05 03:38:43;;;;;;;;;;;;;;;17.14;54.62;98509.31;2070584;28;19929;-52
2023/04/05 03:39:44;;;;;;;;;;;;;;;17.17;54.61;98514.28;2064292;28;19982;-54
2023/04/05 03:40:46;;;;;;;;;;;;;;;17.20;54.56;98511.22;2071156;28;20055;-51
2023/04/05 03:41:46;;;;;;;;;;;;;;;17.24;54.38;98508.13;2070098;28;20024;-53
2023/04/05 03:42:48;;;;;;;;;;;;;;;17.28;54.35;98518.28;2070996;28;19932;-55
2023/04/05 03:43:48;;;;;;;;;;;;;;;17.31;54.44;98504.47;2078639;28;19929;-53
2023/04/05 03:44:52;;;;;;;;;;;;;;;17.33;54.34;98512.31;2080200;28;20425;-54
2023/04/05 03:45:53;;;;;;;;;;;;;;;17.38;54.47;98512.53;2080389;28;20598;-49
2023/04/05 03:46:55;;;;;;;;;;;;;;;17.40;54.50;98514.00;2078670;28;20029;-54
2023/04/05 03:47:57;;;;;;;;;;;;;;;17.45;54.07;98508.03;2079769;28;19934;-54
2023/04/05 03:49:01;;;;;;;;;;;;;;;17.51;54.43;98517.16;2081104;28;20420;-50
2023/04/05 03:50:01;;;;;;;;;;;;;;;17.55;54.20;98513.88;2079552;28;20421;-54
2023/04/05 03:51:03;;;;;;;;;;;;;;;17.58;54.10;98505.44;2079811;28;19940;-55
2023/04/05 03:52:03;;;;;;;;;;;;;;;17.61;54.08;98514.94;2081932;28;19932;-54
2023/04/05 03:53:05;;;;;;;;;;;;;;;17.68;54.15;98514.94;2081728;28;19987;-56
2023/04/05 03:54:05;;;;;;;;;;;;;;;17.70;53.93;98523.63;2078841;28;19928;-54
2023/04/05 03:55:07;;;;;;;;;;;;;;;17.73;54.09;98505.28;2079132;28;19933;-54
2023/04/05 03:56:07;;;;;;;;;;;;;;;17.77;54.19;98508.38;2080905;28;19955;-55
2023/04/05 03:57:09;;;;;;;;;;;;;;;17.81;53.88;98510.50;2079277;28;19951;-55
2023/04/05 03:58:10;;;;;;;;;;;;;;;17.84;53.89;98509.25;2081709;28;20380;-55
2023/04/05 03:59:12;;;;;;;;;;;;;;;17.88;53.88;98509.69;2080404;28;19972;-53
2023/04/05 04:00:13;;;;;;;;;;;;;;;17.90;53.88;98516.50;2079075;28;20622;-51
2023/04/05 04:01:15;;;;;;;;;;;;;;;17.93;54.08;98509.91;2081918;28;19936;-54
2023/04/05 04:02:15;;;;;;;;;;;;;;;17.96;53.89;98509.50;2085456;28;19954;-55
2023/04/05 04:03:17;;;;;;;;;;;;;;;17.97;54.01;98508.47;2080616;28;19986;-53
2023/04/05 04:04:19;;;;;;;;;;;;;;;18.01;54.09;98507.88;2078265;28;19924;-51
2023/04/05 04:05:21;;;;;;;;;;;;;;;18.02;53.87;98517.56;2079019;28;19939;-54
2023/04/05 04:06:25;;;;;;;;;;;;;;;18.06;53.97;98505.41;2076961;28;19939;-54
2023/04/05 04:07:27;;;;;;;;;;;;;;;18.08;53.92;98508.72;2079735;28;20028;-54
2023/04/05 04:08:27;;;;;;;;;;;;;;;18.08;53.80;98508.72;2078644;28;19933;-54
2023/04/05 04:09:29;;;;;;;;;;;;;;;18.11;53.77;98509.31;2077758;28;22689;-53
2023/04/05 04:10:30;;;;;;;;;;;;;;;18.12;53.89;98509.13;2077877;28;20013;-53
2023/04/05 04:11:31;;;;;;;;;;;;;;;18.16;53.68;98510.38;2074131;28;20440;-55
2023/04/05 04:12:32;;;;;;;;;;;;;;;18.18;53.88;98515.53;2082001;28;19929;-55
2023/04/05 04:13:33;;;;;;;;;;;;;;;18.19;53.79;98514.50;2079455;28;19997;-53
2023/04/05 04:14:34;;;;;;;;;;;;;;;18.20;53.82;98506.25;2077966;28;19935;-54
2023/04/05 04:15:35;;;;;;;;;;;;;;;18.21;53.86;98510.59;2076213;28;20003;-56
2023/04/05 04:16:36;;;;;;;;;;;;;;;18.22;53.64;98508.72;2080187;28;19928;-52
2023/04/05 04:17:38;;;;;;;;;;;;;;;18.25;53.60;98508.34;2076336;28;19978;-54
2023/04/05 04:18:38;;;;;;;;;;;;;;;18.26;53.79;98507.28;2075018;28;24813;-52
2023/04/05 04:19:41;;;;;;;;;;;;;;;18.28;53.89;98518.66;2076260;28;19929;-53
2023/04/05 04:20:42;;;;;;;;;;;;;;;18.27;53.82;98506.25;2077118;28;20026;-53
2023/04/05 04:21:50;;;;;;;;;;;;;;;18.28;53.74;98515.97;2081135;28;19929;-55
2023/04/05 04:22:52;;;;;;;;;;;;;;;18.30;53.81;98508.53;2078056;28;20448;-53
2023/04/05 04:23:54;;;;;;;;;;;;;;;18.31;53.74;98515.56;2078004;28;19932;-53
2023/04/05 04:24:55;;;;;;;;;;;;;;;18.34;53.43;98517.84;2076168;28;19932;-61
2023/04/05 04:25:56;;;;;;;;;;;;;;;18.34;53.84;98520.53;2078694;28;19928;-56
2023/04/05 04:26:57;;;;;;;;;;;;;;;18.35;53.54;98524.84;2077494;28;20001;-54
2023/04/05 04:27:58;;;;;;;;;;;;;;;18.34;53.64;98520.53;2078900;28;21121;-53
2023/04/05 04:29:00;;;;;;;;;;;;;;;18.35;53.50;98521.34;2077861;28;19971;-54
2023/04/05 04:30:03;;;;;;;;;;;;;;;18.37;53.49;98528.16;2079717;28;19928;-54
2023/04/05 04:31:08;;;;;;;;;;;;;;;18.36;53.74;98521.16;2082521;28;19932;-54
2023/04/05 04:32:08;;;;;;;;;;;;;;;18.38;53.45;98527.13;2079726;28;19924;-56
2023/04/05 04:33:09;;;;;;;;;;;;;;;18.38;53.62;98521.75;2079588;28;20290;-54
2023/04/05 04:34:10;;;;;;;;;;;;;;;18.38;53.79;98524.44;2079870;28;19932;-53
2023/04/05 04:35:16;;;;;;;;;;;;;;;18.39;53.63;98518.06;2079586;28;20529;-53
2023/04/05 04:36:25;;;;;;;;;;;;;;;18.40;53.42;98521.56;2079464;28;19929;-55
2023/04/05 04:37:29;;;;;;;;;;;;;;;18.40;53.80;98525.06;2078596;28;20399;-56
2023/04/05 04:38:29;;;;;;;;;;;;;;;18.40;53.68;98516.19;2079907;28;19993;-54
2023/04/05 04:39:31;;;;;;;;;;;;;;;18.40;53.50;98522.38;2080051;28;26657;-55
2023/04/05 04:40:37;;;;;;;;;;;;;;;18.42;53.40;98519.50;2082317;28;19929;-54
2023/04/05 04:41:43;;;;;;;;;;;;;;;18.42;53.42;98520.34;2077614;28;22134;-54
2023/04/05 04:42:45;;;;;;;;;;;;;;;18.44;53.59;98520.13;2077808;28;19929;-54
2023/04/05 04:43:47;;;;;;;;;;;;;;;18.43;53.43;98515.78;2077825;28;19971;-55
2023/04/05 04:44:47;;;;;;;;;;;;;;;18.42;53.75;98508.78;2077015;28;19932;-55
2023/04/05 04:45:50;;;;;;;;;;;;;;;18.43;53.72;98519.28;2078639;28;20511;-56
2023/04/05 04:46:53;;;;;;;;;;;;;;;18.46;53.35;98518.06;2080879;28;19933;-56
2023/04/05 04:47:55;;;;;;;;;;;;;;;18.44;53.53;98512.91;2078121;28;19933;-53
2023/04/05 04:48:56;;;;;;;;;;;;;;;18.42;53.67;98520.34;2078304;28;19933;-54
2023/04/05 04:49:58;;;;;;;;;;;;;;;18.43;53.54;98518.47;2080633;28;19935;-52
2023/04/05 04:51:01;;;;;;;;;;;;;;;18.43;53.57;98516.59;2078621;28;19932;-55
2023/04/05 04:52:02;;;;;;;;;;;;;;;18.44;53.76;98522.78;2076981;28;20051;-55
2023/04/05 04:53:03;;;;;;;;;;;;;;;18.44;53.35;98518.28;2079716;28;19928;-56
2023/04/05 04:54:05;;;;;;;;;;;;;;;18.42;53.63;98520.34;2078937;28;19982;-56
2023/04/05 04:55:06;;;;;;;;;;;;;;;18.42;53.66;98525.69;2080175;28;19936;-54
2023/04/05 04:56:07;;;;;;;;;;;;;;;18.43;53.60;98534.59;2078633;28;19995;-54
2023/04/05 04:57:08;;;;;;;;;;;;;;;18.41;53.59;98529.41;2077116;28;19981;-54
2023/04/05 04:58:10;;;;;;;;;;;;;;;18.42;53.35;98528.38;2081174;28;20017;-57
2023/04/05 04:59:11;;;;;;;;;;;;;;;18.40;53.45;98525.06;2079675;28;20374;-54
2023/04/05 05:00:14;;;;;;;;;;;;;;;18.42;53.66;98532.94;2080006;28;19932;-52
2023/04/05 05:01:14;;;;;;;;;;;;;;;18.42;53.29;98535.63;2081009;28;19940;-56
2023/04/05 05:02:16;;;;;;;;;;;;;;;18.43;53.51;98538.09;2077561;28;19940;-52
2023/04/05 05:03:17;;;;;;;;;;;;;;;18.43;53.50;98537.25;2079136;28;19929;-53
2023/04/05 05:04:19;;;;;;;;;;;;;;;18.42;53.48;98539.13;2077750;28;19950;-55
2023/04/05 05:05:21;;;;;;;;;;;;;;;18.41;53.51;98545.50;2077625;28;19932;-55
2023/04/05 05:06:26;;;;;;;;;;;;;;;18.42;53.42;98541.81;2079139;28;20047;-55
2023/04/05 05:07:26;;;;;;;;;;;;;;;18.42;53.38;98544.50;2081945;28;19929;-52
2023/04/05 05:08:27;;;;;;;;;;;;;;;18.41;53.36;98547.38;2080651;28;21502;-54
2023/04/05 05:09:28;;;;;;;;;;;;;;;18.40;53.42;98540.38;2079669;28;19985;-51
2023/04/05 05:10:30;;;;;;;;;;;;;;;18.41;53.48;98550.88;2077889;28;19974;-54
2023/04/05 05:11:30;;;;;;;;;;;;;;;18.42;53.58;98547.19;2075834;28;19932;-55
2023/04/05 05:12:32;;;;;;;;;;;;;;;18.41;53.45;98550.88;2080566;28;19940;-56
2023/04/05 05:13:32;;;;;;;;;;;;;;;18.41;53.37;98547.38;2080254;28;19982;-57
2023/04/05 05:14:34;;;;;;;;;;;;;;;18.40;53.36;98543.06;2080269;28;20062;-54
2023/04/05 05:15:34;;;;;;;;;;;;;;;18.37;53.64;98560.41;2076445;27;20629;-55
2023/04/05 05:16:36;;;;;;;;;;;;;;;18.39;53.52;98550.28;2079062;28;19932;-53
2023/04/05 05:17:38;;;;;;;;;;;;;;;18.38;53.69;98551.28;2080123;28;21094;-53
2023/04/05 05:18:40;;;;;;;;;;;;;;;18.39;53.62;98555.66;2079602;28;19964;-53
2023/04/05 05:19:40;;;;;;;;;;;;;;;18.39;53.53;98550.28;2079615;28;19929;-54
2023/04/05 05:20:42;;;;;;;;;;;;;;;18.41;53.55;98563.50;2081371;28;20605;-53
2023/04/05 05:21:45;;;;;;;;;;;;;;;18.37;53.58;98555.03;2077188;28;19946;-54
2023/04/05 05:22:47;;;;;;;;;;;;;;;18.39;53.54;98561.03;2076287;28;19939;-54
2023/04/05 05:23:47;;;;;;;;;;;;;;;18.40;53.54;98559.97;2074835;28;19968;-51